createdAt,value
2018-08-28T00:01:20.960Z,3.60
2018-08-28T00:03:49.987Z,2.97
2018-08-28T00:06:18.685Z,3.53
2018-08-28T00:08:47.292Z,3.87
2018-08-28T00:11:16.016Z,3.50
2018-08-28T00:13:44.600Z,3.57
2018-08-28T00:16:13.188Z,3.30
2018-08-28T00:18:42.303Z,3.20
2018-08-28T00:21:10.860Z,3.67
2018-08-28T00:23:39.793Z,3.27
2018-08-28T00:26:08.615Z,2.97
2018-08-28T00:28:37.158Z,3.83
2018-08-28T00:31:05.768Z,3.93
2018-08-28T00:33:34.399Z,3.93
2018-08-28T00:36:02.956Z,3.80
2018-08-28T00:38:31.598Z,3.60
2018-08-28T00:41:00.288Z,4.20
2018-08-28T00:43:28.871Z,3.27
2018-08-28T00:45:57.455Z,3.80
2018-08-28T00:48:26.131Z,4.53
2018-08-28T00:50:54.715Z,4.80
2018-08-28T00:53:23.251Z,4.60
2018-08-28T00:55:51.905Z,4.40
2018-08-28T00:58:20.456Z,4.73
2018-08-28T01:00:49.012Z,4.50
2018-08-28T01:03:17.716Z,4.70
2018-08-28T01:05:46.296Z,5.73
2018-08-28T01:08:14.964Z,5.10
2018-08-28T01:10:43.595Z,4.57
2018-08-28T01:13:12.137Z,4.83
2018-08-28T01:15:40.712Z,5.40
2018-08-28T01:18:09.759Z,5.60
2018-08-28T01:20:38.320Z,5.60
2018-08-28T01:23:06.888Z,6.30
2018-08-28T01:25:35.467Z,5.60
2018-08-28T01:28:04.036Z,4.93
2018-08-28T01:30:34.516Z,5.87
2018-08-28T01:33:06.073Z,5.57
2018-08-28T01:35:35.171Z,5.60
2018-08-28T01:38:03.878Z,6.03
2018-08-28T01:40:32.449Z,5.63
2018-08-28T01:43:01.696Z,5.20
2018-08-28T01:45:30.323Z,5.80
2018-08-28T01:47:58.852Z,5.60
2018-08-28T01:50:27.491Z,6.00
2018-08-28T01:52:56.060Z,5.50
2018-08-28T01:55:24.604Z,5.87
2018-08-28T01:57:53.563Z,5.60
2018-08-28T02:00:22.124Z,6.57
2018-08-28T02:02:50.735Z,5.67
2018-08-28T02:05:19.315Z,6.20
2018-08-28T02:07:47.859Z,6.20
2018-08-28T02:10:16.424Z,5.63
2018-08-28T02:12:45.012Z,6.17
2018-08-28T02:15:13.566Z,6.30
2018-08-28T02:17:42.109Z,5.63
2018-08-28T02:20:10.959Z,6.20
2018-08-28T02:22:39.526Z,6.00
2018-08-28T02:25:08.508Z,5.80
2018-08-28T02:27:37.903Z,6.40
2018-08-28T02:30:06.513Z,6.60
2018-08-28T02:32:35.064Z,7.70
2018-08-28T02:35:03.643Z,6.30
2018-08-28T02:37:32.220Z,6.90
2018-08-28T02:40:00.784Z,7.40
2018-08-28T02:42:29.572Z,6.03
2018-08-28T02:44:58.122Z,6.07
2018-08-28T02:47:26.675Z,5.90
2018-08-28T02:49:55.263Z,6.20
2018-08-28T02:52:23.852Z,6.33
2018-08-28T02:54:52.426Z,6.07
2018-08-28T02:57:21.140Z,6.20
2018-08-28T02:59:49.704Z,6.50
2018-08-28T03:02:18.336Z,5.33
2018-08-28T03:04:47.394Z,5.90
2018-08-28T03:07:15.959Z,5.57
2018-08-28T03:09:44.539Z,6.47
2018-08-28T03:12:13.243Z,5.60
2018-08-28T03:14:41.796Z,5.70
2018-08-28T03:17:10.347Z,6.73
2018-08-28T03:19:38.987Z,6.30
2018-08-28T03:22:07.617Z,5.80
2018-08-28T03:24:36.196Z,5.63
2018-08-28T03:27:04.884Z,6.03
2018-08-28T03:29:33.445Z,5.37
2018-08-28T03:32:01.989Z,6.20
2018-08-28T03:34:30.908Z,5.70
2018-08-28T03:36:59.471Z,6.33
2018-08-28T03:39:28.043Z,5.70
2018-08-28T03:41:56.763Z,5.87
2018-08-28T03:44:25.348Z,5.90
2018-08-28T03:46:53.923Z,6.43
2018-08-28T03:49:22.583Z,5.70
2018-08-28T03:51:51.136Z,6.00
2018-08-28T03:54:19.696Z,6.30
2018-08-28T03:56:48.511Z,6.27
2018-08-28T03:59:17.079Z,5.87
2018-08-28T04:01:45.658Z,6.00
2018-08-28T04:04:14.359Z,5.80
2018-08-28T04:06:42.987Z,6.77
2018-08-28T04:09:11.803Z,6.50
2018-08-28T04:11:40.705Z,6.23
2018-08-28T04:14:09.394Z,6.37
2018-08-28T04:16:38.048Z,6.80
2018-08-28T04:19:07.167Z,5.73
2018-08-28T04:21:35.858Z,5.50
2018-08-28T04:24:04.403Z,5.43
2018-08-28T04:26:33.328Z,6.03
2018-08-28T04:29:01.949Z,5.80
2018-08-28T04:31:30.464Z,6.00
2018-08-28T04:33:59.071Z,5.83
2018-08-28T04:36:27.636Z,5.87
2018-08-28T04:38:56.227Z,6.80
2018-08-28T04:41:24.803Z,6.20
2018-08-28T04:43:53.524Z,7.00
2018-08-28T04:46:22.075Z,6.90
2018-08-28T04:48:51.074Z,5.80
2018-08-28T04:51:19.579Z,7.30
2018-08-28T04:53:48.139Z,6.63
2018-08-28T04:56:17.051Z,6.60
2018-08-28T04:58:45.587Z,7.40
2018-08-28T05:01:14.148Z,7.50
2018-08-28T05:03:43.115Z,7.50
2018-08-28T05:06:11.680Z,6.83
2018-08-28T05:08:40.358Z,6.97
2018-08-28T05:11:08.951Z,6.87
2018-08-28T05:13:37.552Z,5.90
2018-08-28T05:16:06.163Z,6.63
2018-08-28T05:18:34.932Z,6.70
2018-08-28T05:21:03.814Z,7.00
2018-08-28T05:23:32.364Z,7.30
2018-08-28T05:26:01.192Z,6.90
2018-08-28T05:28:29.835Z,6.43
2018-08-28T05:30:58.400Z,5.90
2018-08-28T05:33:27.099Z,6.27
2018-08-28T05:35:55.668Z,6.90
2018-08-28T05:38:24.227Z,6.50
2018-08-28T05:40:52.816Z,6.87
2018-08-28T05:43:21.364Z,6.30
2018-08-28T05:45:49.919Z,7.67
2018-08-28T05:48:18.852Z,6.60
2018-08-28T05:50:47.412Z,6.33
2018-08-28T05:53:15.960Z,6.13
2018-08-28T05:55:44.668Z,6.20
2018-08-28T05:58:13.215Z,6.00
2018-08-28T06:00:41.789Z,7.80
2018-08-28T06:03:10.644Z,7.63
2018-08-28T06:05:39.170Z,7.77
2018-08-28T06:08:07.815Z,6.37
2018-08-28T06:10:36.760Z,7.97
2018-08-28T06:13:05.348Z,7.00
2018-08-28T06:15:33.963Z,6.17
2018-08-28T06:18:02.653Z,8.03
2018-08-28T06:20:31.223Z,6.93
2018-08-28T06:22:59.811Z,6.90
2018-08-28T06:25:28.508Z,6.10
2018-08-28T06:27:57.068Z,7.00
2018-08-28T06:30:25.671Z,7.07
2018-08-28T06:32:54.231Z,7.23
2018-08-28T06:35:22.794Z,9.00
2018-08-28T06:37:51.352Z,7.80
2018-08-28T06:40:20.286Z,7.43
2018-08-28T06:42:48.834Z,6.63
2018-08-28T06:45:17.427Z,6.77
2018-08-28T06:47:46.019Z,7.93
2018-08-28T06:50:14.555Z,6.93
2018-08-28T06:52:43.099Z,6.83
2018-08-28T06:55:11.823Z,7.00
2018-08-28T06:57:40.375Z,7.80
2018-08-28T07:00:09.131Z,7.00
2018-08-28T07:02:38.307Z,6.80
2018-08-28T07:05:07.033Z,8.07
2018-08-28T07:07:35.571Z,7.60
2018-08-28T07:10:04.286Z,6.57
2018-08-28T07:12:32.884Z,7.70
2018-08-28T07:15:00.378Z,7.30
2018-08-28T07:17:29.147Z,7.37
2018-08-28T07:19:57.973Z,7.27
2018-08-28T07:22:27.828Z,6.70
2018-08-28T07:24:57.056Z,7.37
2018-08-28T07:27:25.622Z,7.03
2018-08-28T07:29:54.191Z,6.43
2018-08-28T07:32:22.776Z,7.07
2018-08-28T07:34:51.339Z,8.07
2018-08-28T07:37:20.928Z,6.17
2018-08-28T07:39:49.672Z,5.90
2018-08-28T07:42:18.237Z,6.10
2018-08-28T07:44:46.791Z,6.63
2018-08-28T07:47:15.528Z,7.27
2018-08-28T07:49:44.095Z,7.57
2018-08-28T07:52:12.824Z,7.37
2018-08-28T07:54:41.635Z,6.43
2018-08-28T07:57:10.179Z,6.93
2018-08-28T07:59:38.717Z,6.13
2018-08-28T08:02:07.503Z,5.83
2018-08-28T08:04:36.639Z,5.90
2018-08-28T08:07:05.764Z,5.70
2018-08-28T08:09:34.348Z,6.10
2018-08-28T08:12:02.928Z,5.53
2018-08-28T08:14:31.475Z,6.27
2018-08-28T08:17:00.323Z,6.13
2018-08-28T08:19:28.872Z,6.00
2018-08-28T08:21:57.423Z,6.00
2018-08-28T08:24:26.419Z,6.43
2018-08-28T08:26:54.981Z,6.20
2018-08-28T08:29:23.535Z,6.60
2018-08-28T08:31:52.179Z,6.80
2018-08-28T08:34:20.731Z,6.43
2018-08-28T08:36:49.359Z,6.27
2018-08-28T08:39:18.227Z,6.50
2018-08-28T08:41:48.133Z,6.70
2018-08-28T08:44:17.160Z,7.10
2018-08-28T08:46:46.262Z,7.60
2018-08-28T08:49:15.314Z,7.50
2018-08-28T08:51:44.386Z,7.03
2018-08-28T08:54:13.861Z,7.07
2018-08-28T08:56:42.899Z,6.50
2018-08-28T08:59:11.956Z,6.60
2018-08-28T09:01:41.112Z,6.77
2018-08-28T09:04:10.171Z,6.50
2018-08-28T09:06:39.228Z,6.67
2018-08-28T09:09:08.356Z,7.27
2018-08-28T09:11:36.920Z,6.67
2018-08-28T09:14:05.475Z,6.33
2018-08-28T09:16:34.096Z,6.80
2018-08-28T09:19:02.987Z,6.20
2018-08-28T09:21:31.663Z,8.80
2018-08-28T09:24:00.252Z,7.70
2018-08-28T09:26:28.787Z,7.20
2018-08-28T09:28:57.327Z,6.63
2018-08-28T09:31:26.396Z,7.70
2018-08-28T09:33:55.153Z,6.50
2018-08-28T09:36:23.703Z,7.07
2018-08-28T09:38:52.578Z,7.43
2018-08-28T09:41:21.103Z,8.30
2018-08-28T09:43:49.721Z,8.30
2018-08-28T09:46:18.615Z,9.07
2018-08-28T09:48:47.163Z,8.13
2018-08-28T09:51:15.715Z,7.77
2018-08-28T09:53:44.300Z,7.10
2018-08-28T09:56:12.868Z,7.40
2018-08-28T09:58:41.432Z,8.00
2018-08-28T10:01:15.635Z,8.60
2018-08-28T10:03:44.189Z,7.97
2018-08-28T10:06:12.764Z,8.17
2018-08-28T10:08:41.551Z,8.07
2018-08-28T10:11:10.150Z,8.67
2018-08-28T10:13:38.744Z,9.87
2018-08-28T10:16:07.385Z,9.83
2018-08-28T10:18:35.935Z,9.60
2018-08-28T10:21:04.496Z,9.30
2018-08-28T10:23:33.075Z,9.30
2018-08-28T10:26:01.688Z,8.80
2018-08-28T10:28:30.228Z,9.77
2018-08-28T10:30:59.168Z,10.27
2018-08-28T10:33:27.823Z,8.93
2018-08-28T10:35:56.496Z,9.10
2018-08-28T10:38:25.323Z,10.20
2018-08-28T10:40:53.991Z,10.10
2018-08-28T10:43:22.540Z,10.80
2018-08-28T10:45:51.848Z,10.90
2018-08-28T10:48:20.492Z,10.07
2018-08-28T10:50:49.108Z,9.80
2018-08-28T10:53:17.819Z,9.80
2018-08-28T10:55:46.377Z,9.87
2018-08-28T10:58:14.952Z,10.70
2018-08-28T11:00:43.747Z,10.43
2018-08-28T11:03:12.447Z,9.87
2018-08-28T11:05:41.010Z,9.07
2018-08-28T11:08:09.886Z,9.63
2018-08-28T11:10:38.451Z,9.47
2018-08-28T11:13:07.129Z,9.90
2018-08-28T11:15:35.718Z,9.50
2018-08-28T11:18:04.288Z,9.40
2018-08-28T11:20:32.843Z,9.43
2018-08-28T11:23:02.260Z,10.20
2018-08-28T11:25:30.788Z,9.87
2018-08-28T11:27:59.347Z,9.57
2018-08-28T11:30:28.399Z,9.73
2018-08-28T11:32:57.151Z,8.77
2018-08-28T11:35:25.828Z,10.30
2018-08-28T11:37:54.727Z,8.70
2018-08-28T11:40:23.306Z,9.47
2018-08-28T11:42:51.987Z,9.33
2018-08-28T11:45:20.584Z,9.60
2018-08-28T11:47:49.172Z,9.80
2018-08-28T11:50:17.835Z,8.90
2018-08-28T11:52:46.549Z,9.47
2018-08-28T11:55:15.084Z,9.43
2018-08-28T11:57:43.783Z,9.87
2018-08-28T12:00:12.639Z,10.03
2018-08-28T12:02:41.205Z,10.50
2018-08-28T12:05:10.001Z,8.77
2018-08-28T12:07:38.876Z,10.50
2018-08-28T12:10:08.534Z,9.23
2018-08-28T12:12:37.480Z,9.17
2018-08-28T12:15:06.390Z,9.60
2018-08-28T12:17:34.956Z,10.20
2018-08-28T12:20:03.600Z,9.50
2018-08-28T12:22:32.498Z,8.87
2018-08-28T12:25:01.055Z,10.40
2018-08-28T12:27:29.622Z,9.20
2018-08-28T12:29:58.651Z,9.30
2018-08-28T12:32:27.207Z,10.90
2018-08-28T12:34:55.871Z,10.20
2018-08-28T12:37:24.668Z,9.70
2018-08-28T12:39:53.263Z,9.57
2018-08-28T12:42:21.815Z,10.20
2018-08-28T12:44:50.917Z,10.23
2018-08-28T12:47:19.464Z,9.07
2018-08-28T12:49:48.038Z,10.10
2018-08-28T12:52:16.727Z,9.23
2018-08-28T12:54:45.271Z,9.80
2018-08-28T12:57:13.935Z,9.77
2018-08-28T12:59:42.556Z,9.60
2018-08-28T13:02:11.205Z,9.50
2018-08-28T13:04:39.684Z,9.40
2018-08-28T13:07:08.443Z,9.30
2018-08-28T13:09:36.976Z,9.40
2018-08-28T13:12:05.563Z,8.40
2018-08-28T13:14:34.349Z,9.73
2018-08-28T13:17:02.843Z,9.00
2018-08-28T13:19:31.392Z,9.07
2018-08-28T13:22:00.282Z,9.20
2018-08-28T13:24:28.828Z,9.07
2018-08-28T13:26:57.385Z,10.40
2018-08-28T13:29:26.060Z,9.53
2018-08-28T13:31:54.607Z,9.40
2018-08-28T13:34:23.179Z,9.00
2018-08-28T13:36:51.897Z,8.60
2018-08-28T13:39:20.460Z,10.77
2018-08-28T13:41:49.025Z,10.33
2018-08-28T13:44:17.940Z,10.20
2018-08-28T13:46:46.492Z,10.00
2018-08-28T13:49:15.072Z,9.97
2018-08-28T13:51:43.740Z,10.37
2018-08-28T13:54:12.329Z,10.53
2018-08-28T13:56:40.872Z,9.10
2018-08-28T13:59:09.476Z,8.10
2018-08-28T14:01:38.016Z,9.90
2018-08-28T14:04:06.572Z,10.30
2018-08-28T14:06:35.271Z,10.00
2018-08-28T14:09:04.828Z,9.97
2018-08-28T14:11:33.428Z,9.97
2018-08-28T14:14:02.460Z,9.73
2018-08-28T14:16:30.847Z,9.00
2018-08-28T14:18:59.423Z,8.70
2018-08-28T14:21:28.028Z,8.90
2018-08-28T14:23:56.927Z,10.60
2018-08-28T14:26:25.498Z,8.60
2018-08-28T14:28:54.785Z,9.37
2018-08-28T14:31:23.283Z,9.30
2018-08-28T14:33:53.426Z,9.80
2018-08-28T14:36:22.516Z,10.03
2018-08-28T14:38:51.068Z,10.20
2018-08-28T14:41:19.631Z,9.20
2018-08-28T14:43:48.237Z,8.77
2018-08-28T14:46:16.787Z,8.70
2018-08-28T14:48:45.339Z,9.47
2018-08-28T14:51:13.999Z,10.33
2018-08-28T14:53:42.563Z,9.57
2018-08-28T14:56:11.127Z,9.63
2018-08-28T14:58:39.835Z,8.53
2018-08-28T15:01:08.413Z,9.90
2018-08-28T15:03:36.975Z,9.67
2018-08-28T15:06:05.610Z,10.50
2018-08-28T15:08:34.692Z,9.17
2018-08-28T15:11:03.740Z,9.70
2018-08-28T15:13:32.423Z,9.57
2018-08-28T15:16:00.993Z,8.70
2018-08-28T15:18:29.580Z,10.47
2018-08-28T15:20:58.219Z,8.97
2018-08-28T15:23:27.075Z,9.17
2018-08-28T15:25:55.635Z,8.30
2018-08-28T15:28:24.303Z,9.20
2018-08-28T15:30:52.904Z,9.03
2018-08-28T15:33:21.471Z,9.67
2018-08-28T15:35:50.584Z,9.37
2018-08-28T15:38:19.144Z,8.87
2018-08-28T15:40:47.700Z,8.33
2018-08-28T15:43:16.671Z,9.40
2018-08-28T15:45:45.244Z,9.67
2018-08-28T15:48:13.788Z,10.50
2018-08-28T15:50:42.452Z,8.40
2018-08-28T15:53:11.016Z,9.93
2018-08-28T15:55:39.601Z,9.97
2018-08-28T15:58:08.323Z,9.47
2018-08-28T16:00:36.863Z,8.33
2018-08-28T16:03:05.428Z,9.27
2018-08-28T16:05:34.008Z,8.70
2018-08-28T16:08:02.583Z,8.40
2018-08-28T16:10:31.132Z,8.97
2018-08-28T16:12:59.804Z,8.17
2018-08-28T16:15:28.365Z,8.83
2018-08-28T16:17:57.300Z,9.17
2018-08-28T16:20:25.988Z,9.27
2018-08-28T16:22:57.844Z,8.50
2018-08-28T16:25:26.432Z,8.70
2018-08-28T16:27:55.053Z,9.13
2018-08-28T16:30:23.622Z,8.63
2018-08-28T16:32:52.220Z,9.20
2018-08-28T16:35:20.895Z,8.77
2018-08-28T16:37:49.459Z,8.93
2018-08-28T16:40:18.114Z,9.00
2018-08-28T16:42:46.677Z,9.40
2018-08-28T16:45:15.247Z,8.43
2018-08-28T16:47:44.231Z,9.20
2018-08-28T16:50:12.820Z,8.63
2018-08-28T16:52:41.356Z,8.67
2018-08-28T16:55:10.042Z,8.27
2018-08-28T16:57:38.603Z,9.60
2018-08-28T17:00:08.088Z,9.17
2018-08-28T17:02:36.740Z,9.90
2018-08-28T17:05:05.395Z,7.80
2018-08-28T17:07:33.965Z,10.33
2018-08-28T17:10:02.784Z,8.37
2018-08-28T17:12:31.345Z,8.97
2018-08-28T17:14:59.957Z,7.93
2018-08-28T17:17:28.518Z,7.43
2018-08-28T17:19:57.128Z,8.10
2018-08-28T17:22:25.732Z,7.70
2018-08-28T17:24:54.407Z,8.13
2018-08-28T17:27:23.295Z,8.17
2018-08-28T17:29:51.908Z,7.63
2018-08-28T17:32:20.795Z,8.50
2018-08-28T17:34:49.336Z,8.13
2018-08-28T17:37:17.912Z,7.80
2018-08-28T17:39:46.487Z,7.87
2018-08-28T17:42:15.049Z,7.27
2018-08-28T17:44:43.595Z,8.10
2018-08-28T17:47:12.171Z,8.47
2018-08-28T17:49:40.787Z,8.90
2018-08-28T17:52:09.339Z,8.00
2018-08-28T17:54:37.995Z,8.30
2018-08-28T17:57:06.757Z,6.87
2018-08-28T17:59:35.224Z,7.40
2018-08-28T18:02:04.226Z,8.37
2018-08-28T18:04:32.788Z,7.67
2018-08-28T18:07:01.394Z,7.30
2018-08-28T18:09:30.384Z,9.10
2018-08-28T18:11:58.944Z,7.90
2018-08-28T18:14:27.544Z,8.17
2018-08-28T18:16:56.361Z,8.20
2018-08-28T18:19:25.057Z,8.37
2018-08-28T18:21:53.608Z,7.37
2018-08-28T18:24:23.446Z,7.90
2018-08-28T18:26:52.021Z,7.70
2018-08-28T18:29:20.568Z,8.03
2018-08-28T18:31:49.484Z,8.30
2018-08-28T18:34:18.027Z,8.00
2018-08-28T18:36:46.580Z,8.67
2018-08-28T18:39:15.193Z,7.80
2018-08-28T18:41:43.976Z,8.80
2018-08-28T18:44:12.572Z,8.10
2018-08-28T18:46:41.157Z,7.70
2018-08-28T18:49:11.106Z,7.50
2018-08-28T18:51:40.156Z,8.60
2018-08-28T18:54:08.868Z,8.03
2018-08-28T18:56:37.431Z,8.40
2018-08-28T18:59:06.007Z,8.80
2018-08-28T19:01:34.700Z,9.10
2018-08-28T19:04:04.020Z,9.70
2018-08-28T19:06:32.576Z,9.30
2018-08-28T19:09:01.307Z,7.67
2018-08-28T19:11:29.845Z,9.00
2018-08-28T19:13:58.401Z,9.60
2018-08-28T19:16:27.151Z,9.20
2018-08-28T19:18:55.703Z,9.03
2018-08-28T19:21:24.270Z,8.13
2018-08-28T19:23:53.135Z,9.73
2018-08-28T19:26:21.703Z,9.20
2018-08-28T19:28:50.487Z,9.60
2018-08-28T19:31:19.399Z,7.93
2018-08-28T19:33:48.072Z,9.03
2018-08-28T19:36:16.651Z,9.17
2018-08-28T19:38:45.396Z,9.50
2018-08-28T19:41:13.958Z,9.37
2018-08-28T19:43:42.523Z,10.17
2018-08-28T19:46:11.205Z,9.93
2018-08-28T19:48:39.772Z,9.70
2018-08-28T19:51:08.343Z,8.10
2018-08-28T19:53:37.205Z,7.87
2018-08-28T19:56:05.831Z,10.43
2018-08-28T19:58:34.411Z,8.57
2018-08-28T20:01:03.072Z,10.50
2018-08-28T20:03:31.667Z,10.30
2018-08-28T20:06:00.233Z,7.03
2018-08-28T20:08:28.852Z,8.63
2018-08-28T20:10:57.417Z,9.00
2018-08-28T20:13:25.979Z,9.03
2018-08-28T20:15:54.731Z,9.33
2018-08-28T20:18:23.287Z,8.60
2018-08-28T20:20:51.941Z,9.33
2018-08-28T20:23:20.642Z,9.30
2018-08-28T20:25:49.206Z,9.00
2018-08-28T20:28:17.763Z,9.70
2018-08-28T20:30:46.543Z,9.30
2018-08-28T20:33:15.099Z,7.77
2018-08-28T20:35:43.664Z,8.87
2018-08-28T20:38:12.607Z,8.00
2018-08-28T20:40:41.176Z,9.00
2018-08-28T20:43:09.751Z,8.63
2018-08-28T20:45:38.415Z,8.57
2018-08-28T20:48:07.132Z,9.90
2018-08-28T20:50:35.783Z,9.10
2018-08-28T20:53:04.527Z,9.57
2018-08-28T20:55:33.104Z,9.40
2018-08-28T20:58:01.753Z,9.33
2018-08-28T21:00:31.203Z,10.27
2018-08-28T21:02:59.868Z,11.47
2018-08-28T21:05:29.751Z,10.70
2018-08-28T21:08:00.445Z,9.47
2018-08-28T21:10:29.323Z,9.20
2018-08-28T21:12:58.029Z,10.27
2018-08-28T21:15:26.999Z,10.20
2018-08-28T21:17:55.556Z,9.80
2018-08-28T21:20:24.291Z,10.40
2018-08-28T21:22:52.977Z,9.93
2018-08-28T21:25:21.545Z,9.77
2018-08-28T21:27:50.103Z,10.57
2018-08-28T21:30:18.690Z,10.50
2018-08-28T21:32:47.288Z,11.80
2018-08-28T21:35:15.883Z,11.10
2018-08-28T21:37:44.507Z,10.60
2018-08-28T21:40:13.079Z,10.57
2018-08-28T21:42:41.639Z,10.10
2018-08-28T21:45:10.540Z,11.27
2018-08-28T21:47:39.215Z,10.40
2018-08-28T21:50:07.784Z,9.70
2018-08-28T21:52:36.449Z,9.43
2018-08-28T21:55:05.023Z,9.47
2018-08-28T21:57:33.696Z,10.70
2018-08-28T22:00:02.536Z,10.60
2018-08-28T22:02:31.215Z,8.73
2018-08-28T22:04:59.783Z,11.00
2018-08-28T22:07:33.619Z,10.57
2018-08-28T22:10:02.307Z,9.13
2018-08-28T22:12:30.871Z,9.23
2018-08-28T22:14:59.774Z,9.30
2018-08-28T22:17:28.958Z,10.70
2018-08-28T22:19:57.531Z,10.00
2018-08-28T22:22:26.214Z,9.83
2018-08-28T22:24:54.939Z,11.23
2018-08-28T22:27:23.772Z,9.90
2018-08-28T22:29:52.660Z,10.57
2018-08-28T22:32:21.335Z,10.67
2018-08-28T22:34:49.907Z,10.27
2018-08-28T22:37:18.901Z,10.33
2018-08-28T22:39:47.524Z,10.30
2018-08-28T22:42:16.080Z,9.10
2018-08-28T22:44:44.695Z,10.53
2018-08-28T22:47:13.256Z,10.40
2018-08-28T22:49:42.020Z,9.20
2018-08-28T22:52:10.761Z,9.60
2018-08-28T22:54:39.576Z,10.83
2018-08-28T22:57:08.652Z,10.47
2018-08-28T22:59:37.347Z,9.70
2018-08-28T23:02:06.028Z,9.30
2018-08-28T23:04:35.174Z,10.00
2018-08-28T23:07:03.860Z,10.63
2018-08-28T23:09:32.443Z,11.50
2018-08-28T23:12:00.991Z,10.20
2018-08-28T23:14:29.595Z,11.00
2018-08-28T23:16:58.397Z,10.10
2018-08-28T23:19:27.335Z,10.27
2018-08-28T23:21:56.459Z,11.80
2018-08-28T23:24:25.760Z,9.37
2018-08-28T23:26:54.803Z,10.67
2018-08-28T23:29:23.896Z,10.87
2018-08-28T23:31:52.971Z,9.90
2018-08-28T23:34:21.784Z,10.20
2018-08-28T23:36:50.412Z,12.53
2018-08-28T23:39:18.967Z,10.30
2018-08-28T23:41:47.548Z,10.60
2018-08-28T23:44:16.224Z,10.40
2018-08-28T23:46:44.796Z,9.57
2018-08-28T23:49:13.411Z,9.30
2018-08-28T23:51:44.527Z,11.40
2018-08-28T23:54:13.131Z,10.50
2018-08-28T23:56:41.687Z,11.63
2018-08-28T23:59:10.547Z,11.57
